sensor_id;sensor_type;location;lat;lon;timestamp;P1;durP1;ratioP1;P2;durP2;ratioP2
13122;SDS011;6627;50.920;12.050;2023-12-20T00:00:20;3.57;;;2.20;;
13122;SDS011;6627;50.920;12.050;2023-12-20T00:03:05;2.50;;;2.10;;
13122;SDS011;6627;50.920;12.050;2023-12-20T00:05:45;1.83;;;1.73;;
13122;SDS011;6627;50.920;12.050;2023-12-20T00:08:27;2.07;;;1.83;;
13122;SDS011;6627;50.920;12.050;2023-12-20T00:11:08;1.70;;;1.43;;
13122;SDS011;6627;50.920;12.050;2023-12-20T00:13:35;1.63;;;1.53;;
13122;SDS011;6627;50.920;12.050;2023-12-20T00:16:04;1.43;;;1.33;;
13122;SDS011;6627;50.920;12.050;2023-12-20T00:18:31;2.03;;;1.30;;
13122;SDS011;6627;50.920;12.050;2023-12-20T00:21:05;1.30;;;1.20;;
13122;SDS011;6627;50.920;12.050;2023-12-20T00:23:33;2.27;;;1.30;;
13122;SDS011;6627;50.920;12.050;2023-12-20T00:26:09;1.27;;;1.10;;
13122;SDS011;6627;50.920;12.050;2023-12-20T00:28:56;1.70;;;1.03;;
13122;SDS011;6627;50.920;12.050;2023-12-20T00:31:34;1.20;;;1.10;;
13122;SDS011;6627;50.920;12.050;2023-12-20T00:34:20;2.40;;;1.07;;
13122;SDS011;6627;50.920;12.050;2023-12-20T00:36:57;1.00;;;1.00;;
13122;SDS011;6627;50.920;12.050;2023-12-20T00:39:30;1.00;;;1.00;;
13122;SDS011;6627;50.920;12.050;2023-12-20T00:42:08;1.27;;;1.07;;
13122;SDS011;6627;50.920;12.050;2023-12-20T00:44:56;1.03;;;0.93;;
13122;SDS011;6627;50.920;12.050;2023-12-20T00:47:25;1.10;;;1.00;;
13122;SDS011;6627;50.920;12.050;2023-12-20T00:49:57;1.80;;;1.13;;
13122;SDS011;6627;50.920;12.050;2023-12-20T00:52:41;2.40;;;0.90;;
13122;SDS011;6627;50.920;12.050;2023-12-20T00:55:17;1.23;;;1.00;;
13122;SDS011;6627;50.920;12.050;2023-12-20T00:57:59;0.90;;;0.80;;
13122;SDS011;6627;50.920;12.050;2023-12-20T01:00:29;0.70;;;0.70;;
13122;SDS011;6627;50.920;12.050;2023-12-20T01:02:59;0.80;;;0.80;;
13122;SDS011;6627;50.920;12.050;2023-12-20T01:05:29;0.80;;;0.80;;
13122;SDS011;6627;50.920;12.050;2023-12-20T01:08:07;0.70;;;0.70;;
13122;SDS011;6627;50.920;12.050;2023-12-20T01:10:43;0.60;;;0.60;;
13122;SDS011;6627;50.920;12.050;2023-12-20T01:13:15;1.70;;;0.70;;
13122;SDS011;6627;50.920;12.050;2023-12-20T01:15:42;0.60;;;0.60;;
13122;SDS011;6627;50.920;12.050;2023-12-20T01:18:15;0.70;;;0.60;;
13122;SDS011;6627;50.920;12.050;2023-12-20T01:21:02;0.40;;;0.40;;
13122;SDS011;6627;50.920;12.050;2023-12-20T01:23:29;0.60;;;0.60;;
13122;SDS011;6627;50.920;12.050;2023-12-20T01:26:01;0.50;;;0.50;;
13122;SDS011;6627;50.920;12.050;2023-12-20T01:28:39;0.90;;;0.70;;
13122;SDS011;6627;50.920;12.050;2023-12-20T01:31:06;0.50;;;0.50;;
13122;SDS011;6627;50.920;12.050;2023-12-20T01:33:36;0.80;;;0.60;;
13122;SDS011;6627;50.920;12.050;2023-12-20T01:36:14;0.50;;;0.50;;
13122;SDS011;6627;50.920;12.050;2023-12-20T01:38:41;0.60;;;0.50;;
13122;SDS011;6627;50.920;12.050;2023-12-20T01:41:19;0.67;;;0.67;;
13122;SDS011;6627;50.920;12.050;2023-12-20T01:43:48;0.50;;;0.50;;
13122;SDS011;6627;50.920;12.050;2023-12-20T01:46:16;1.03;;;0.60;;
13122;SDS011;6627;50.920;12.050;2023-12-20T01:48:46;0.40;;;0.40;;
13122;SDS011;6627;50.920;12.050;2023-12-20T01:51:14;0.93;;;0.50;;
13122;SDS011;6627;50.920;12.050;2023-12-20T01:54:02;0.57;;;0.57;;
13122;SDS011;6627;50.920;12.050;2023-12-20T01:56:32;0.63;;;0.60;;
13122;SDS011;6627;50.920;12.050;2023-12-20T01:59:10;0.50;;;0.50;;
13122;SDS011;6627;50.920;12.050;2023-12-20T02:01:38;0.50;;;0.50;;
13122;SDS011;6627;50.920;12.050;2023-12-20T02:04:19;0.40;;;0.40;;
13122;SDS011;6627;50.920;12.050;2023-12-20T02:06:53;0.40;;;0.40;;
13122;SDS011;6627;50.920;12.050;2023-12-20T02:09:24;0.97;;;0.50;;
13122;SDS011;6627;50.920;12.050;2023-12-20T02:11:55;0.70;;;0.60;;
13122;SDS011;6627;50.920;12.050;2023-12-20T02:14:32;0.50;;;0.50;;
13122;SDS011;6627;50.920;12.050;2023-12-20T02:16:59;0.40;;;0.40;;
13122;SDS011;6627;50.920;12.050;2023-12-20T02:19:44;0.43;;;0.43;;
13122;SDS011;6627;50.920;12.050;2023-12-20T02:22:22;0.40;;;0.40;;
13122;SDS011;6627;50.920;12.050;2023-12-20T02:24:58;0.40;;;0.40;;
13122;SDS011;6627;50.920;12.050;2023-12-20T02:27:25;0.30;;;0.30;;
13122;SDS011;6627;50.920;12.050;2023-12-20T02:30:03;0.40;;;0.40;;
13122;SDS011;6627;50.920;12.050;2023-12-20T02:32:35;0.33;;;0.33;;
13122;SDS011;6627;50.920;12.050;2023-12-20T02:35:02;0.30;;;0.30;;
13122;SDS011;6627;50.920;12.050;2023-12-20T02:37:31;0.43;;;0.43;;
13122;SDS011;6627;50.920;12.050;2023-12-20T02:40:05;0.30;;;0.30;;
13122;SDS011;6627;50.920;12.050;2023-12-20T02:42:40;0.37;;;0.37;;
13122;SDS011;6627;50.920;12.050;2023-12-20T02:45:27;0.53;;;0.40;;
13122;SDS011;6627;50.920;12.050;2023-12-20T02:47:59;1.40;;;0.40;;
13122;SDS011;6627;50.920;12.050;2023-12-20T02:50:26;0.30;;;0.30;;
13122;SDS011;6627;50.920;12.050;2023-12-20T02:53:03;0.50;;;0.50;;
13122;SDS011;6627;50.920;12.050;2023-12-20T02:55:30;0.30;;;0.30;;
13122;SDS011;6627;50.920;12.050;2023-12-20T02:58:01;0.53;;;0.50;;
13122;SDS011;6627;50.920;12.050;2023-12-20T03:00:30;0.33;;;0.33;;
13122;SDS011;6627;50.920;12.050;2023-12-20T03:02:58;0.40;;;0.40;;
13122;SDS011;6627;50.920;12.050;2023-12-20T03:05:45;0.20;;;0.20;;
13122;SDS011;6627;50.920;12.050;2023-12-20T03:08:17;0.30;;;0.30;;
13122;SDS011;6627;50.920;12.050;2023-12-20T03:10:48;0.60;;;0.40;;
13122;SDS011;6627;50.920;12.050;2023-12-20T03:13:25;0.30;;;0.30;;
13122;SDS011;6627;50.920;12.050;2023-12-20T03:15:52;0.30;;;0.30;;
13122;SDS011;6627;50.920;12.050;2023-12-20T03:18:20;0.30;;;0.30;;
13122;SDS011;6627;50.920;12.050;2023-12-20T03:21:07;2.03;;;0.70;;
13122;SDS011;6627;50.920;12.050;2023-12-20T03:23:35;0.90;;;0.60;;
13122;SDS011;6627;50.920;12.050;2023-12-20T03:26:14;0.30;;;0.30;;
13122;SDS011;6627;50.920;12.050;2023-12-20T03:28:42;0.50;;;0.50;;
13122;SDS011;6627;50.920;12.050;2023-12-20T03:31:12;0.60;;;0.60;;
13122;SDS011;6627;50.920;12.050;2023-12-20T03:33:51;0.50;;;0.50;;
13122;SDS011;6627;50.920;12.050;2023-12-20T03:36:20;0.80;;;0.57;;
13122;SDS011;6627;50.920;12.050;2023-12-20T03:38:50;1.10;;;1.00;;
13122;SDS011;6627;50.920;12.050;2023-12-20T03:41:24;1.17;;;0.60;;
13122;SDS011;6627;50.920;12.050;2023-12-20T03:44:11;0.57;;;0.40;;
13122;SDS011;6627;50.920;12.050;2023-12-20T03:46:57;1.07;;;0.60;;
13122;SDS011;6627;50.920;12.050;2023-12-20T03:49:34;0.40;;;0.40;;
13122;SDS011;6627;50.920;12.050;2023-12-20T03:52:16;0.33;;;0.33;;
13122;SDS011;6627;50.920;12.050;2023-12-20T03:54:44;0.67;;;0.60;;
13122;SDS011;6627;50.920;12.050;2023-12-20T03:57:12;2.40;;;1.77;;
13122;SDS011;6627;50.920;12.050;2023-12-20T03:59:44;0.80;;;0.80;;
13122;SDS011;6627;50.920;12.050;2023-12-20T04:02:19;0.70;;;0.63;;
13122;SDS011;6627;50.920;12.050;2023-12-20T04:04:49;2.27;;;0.50;;
13122;SDS011;6627;50.920;12.050;2023-12-20T04:07:32;0.70;;;0.63;;
13122;SDS011;6627;50.920;12.050;2023-12-20T04:10:10;0.50;;;0.50;;
13122;SDS011;6627;50.920;12.050;2023-12-20T04:12:37;0.40;;;0.40;;
13122;SDS011;6627;50.920;12.050;2023-12-20T04:15:15;0.80;;;0.60;;
13122;SDS011;6627;50.920;12.050;2023-12-20T04:18:02;0.53;;;0.53;;
13122;SDS011;6627;50.920;12.050;2023-12-20T04:20:34;0.60;;;0.60;;
13122;SDS011;6627;50.920;12.050;2023-12-20T04:23:01;0.50;;;0.50;;
13122;SDS011;6627;50.920;12.050;2023-12-20T04:25:30;1.60;;;0.50;;
13122;SDS011;6627;50.920;12.050;2023-12-20T04:28:17;1.17;;;0.60;;
13122;SDS011;6627;50.920;12.050;2023-12-20T04:30:48;0.60;;;0.50;;
13122;SDS011;6627;50.920;12.050;2023-12-20T04:33:22;0.90;;;0.57;;
13122;SDS011;6627;50.920;12.050;2023-12-20T04:35:55;0.63;;;0.63;;
13122;SDS011;6627;50.920;12.050;2023-12-20T04:38:42;1.83;;;0.60;;
13122;SDS011;6627;50.920;12.050;2023-12-20T04:41:11;0.50;;;0.50;;
13122;SDS011;6627;50.920;12.050;2023-12-20T04:43:52;0.87;;;0.70;;
13122;SDS011;6627;50.920;12.050;2023-12-20T04:46:24;0.77;;;0.60;;
13122;SDS011;6627;50.920;12.050;2023-12-20T04:49:10;2.10;;;0.60;;
13122;SDS011;6627;50.920;12.050;2023-12-20T04:51:57;0.83;;;0.80;;
13122;SDS011;6627;50.920;12.050;2023-12-20T04:54:30;0.90;;;0.90;;
13122;SDS011;6627;50.920;12.050;2023-12-20T04:56:59;0.93;;;0.63;;
13122;SDS011;6627;50.920;12.050;2023-12-20T04:59:27;0.80;;;0.80;;
13122;SDS011;6627;50.920;12.050;2023-12-20T05:02:08;0.70;;;0.70;;
13122;SDS011;6627;50.920;12.050;2023-12-20T05:04:38;0.70;;;0.70;;
13122;SDS011;6627;50.920;12.050;2023-12-20T05:07:08;0.60;;;0.60;;
13122;SDS011;6627;50.920;12.050;2023-12-20T05:09:55;1.73;;;0.70;;
13122;SDS011;6627;50.920;12.050;2023-12-20T05:12:40;1.17;;;1.00;;
13122;SDS011;6627;50.920;12.050;2023-12-20T05:15:20;1.00;;;0.90;;
13122;SDS011;6627;50.920;12.050;2023-12-20T05:18:07;3.20;;;1.77;;
13122;SDS011;6627;50.920;12.050;2023-12-20T05:20:54;1.40;;;1.13;;
13122;SDS011;6627;50.920;12.050;2023-12-20T05:23:21;4.87;;;3.87;;
13122;SDS011;6627;50.920;12.050;2023-12-20T05:26:08;6.53;;;3.87;;
13122;SDS011;6627;50.920;12.050;2023-12-20T05:28:56;7.13;;;4.47;;
13122;SDS011;6627;50.920;12.050;2023-12-20T05:31:24;2.70;;;2.00;;
13122;SDS011;6627;50.920;12.050;2023-12-20T05:34:06;1.90;;;1.10;;
13122;SDS011;6627;50.920;12.050;2023-12-20T05:36:43;1.20;;;1.10;;
13122;SDS011;6627;50.920;12.050;2023-12-20T05:39:11;1.37;;;1.13;;
13122;SDS011;6627;50.920;12.050;2023-12-20T05:41:38;1.63;;;1.40;;
13122;SDS011;6627;50.920;12.050;2023-12-20T05:44:07;4.67;;;2.90;;
13122;SDS011;6627;50.920;12.050;2023-12-20T05:46:41;2.00;;;1.70;;
13122;SDS011;6627;50.920;12.050;2023-12-20T05:49:22;2.97;;;2.20;;
13122;SDS011;6627;50.920;12.050;2023-12-20T05:51:50;3.27;;;2.50;;
13122;SDS011;6627;50.920;12.050;2023-12-20T05:54:18;7.80;;;4.87;;
13122;SDS011;6627;50.920;12.050;2023-12-20T05:56:46;3.17;;;1.90;;
13122;SDS011;6627;50.920;12.050;2023-12-20T05:59:16;3.50;;;2.03;;
13122;SDS011;6627;50.920;12.050;2023-12-20T06:01:43;3.90;;;2.90;;
13122;SDS011;6627;50.920;12.050;2023-12-20T06:04:10;4.43;;;2.87;;
13122;SDS011;6627;50.920;12.050;2023-12-20T06:06:40;2.23;;;1.57;;
13122;SDS011;6627;50.920;12.050;2023-12-20T06:09:08;3.80;;;1.63;;
13122;SDS011;6627;50.920;12.050;2023-12-20T06:11:36;4.77;;;3.23;;
13122;SDS011;6627;50.920;12.050;2023-12-20T06:14:03;1.70;;;1.33;;
13122;SDS011;6627;50.920;12.050;2023-12-20T06:16:32;2.60;;;1.50;;
13122;SDS011;6627;50.920;12.050;2023-12-20T06:19:04;3.23;;;1.67;;
13122;SDS011;6627;50.920;12.050;2023-12-20T06:21:41;3.80;;;2.70;;
13122;SDS011;6627;50.920;12.050;2023-12-20T06:24:28;2.57;;;1.87;;
13122;SDS011;6627;50.920;12.050;2023-12-20T06:26:55;2.77;;;1.90;;
13122;SDS011;6627;50.920;12.050;2023-12-20T06:29:22;1.30;;;1.20;;
13122;SDS011;6627;50.920;12.050;2023-12-20T06:32:07;3.00;;;1.33;;
13122;SDS011;6627;50.920;12.050;2023-12-20T06:34:35;1.93;;;1.50;;
13122;SDS011;6627;50.920;12.050;2023-12-20T06:37:03;4.80;;;2.70;;
13122;SDS011;6627;50.920;12.050;2023-12-20T06:39:30;1.70;;;1.50;;
13122;SDS011;6627;50.920;12.050;2023-12-20T06:41:59;1.17;;;1.07;;
13122;SDS011;6627;50.920;12.050;2023-12-20T06:44:26;1.20;;;1.10;;
13122;SDS011;6627;50.920;12.050;2023-12-20T06:46:53;3.13;;;1.50;;
13122;SDS011;6627;50.920;12.050;2023-12-20T06:49:22;2.53;;;1.57;;
13122;SDS011;6627;50.920;12.050;2023-12-20T06:51:49;3.10;;;1.50;;
13122;SDS011;6627;50.920;12.050;2023-12-20T06:54:16;5.97;;;3.43;;
13122;SDS011;6627;50.920;12.050;2023-12-20T06:56:44;5.90;;;3.33;;
13122;SDS011;6627;50.920;12.050;2023-12-20T06:59:11;12.07;;;7.23;;
13122;SDS011;6627;50.920;12.050;2023-12-20T07:01:47;9.37;;;6.50;;
13122;SDS011;6627;50.920;12.050;2023-12-20T07:04:16;7.37;;;4.90;;
13122;SDS011;6627;50.920;12.050;2023-12-20T07:06:47;4.47;;;3.23;;
13122;SDS011;6627;50.920;12.050;2023-12-20T07:09:17;3.70;;;2.60;;
13122;SDS011;6627;50.920;12.050;2023-12-20T07:11:45;3.53;;;3.00;;
13122;SDS011;6627;50.920;12.050;2023-12-20T07:14:12;2.10;;;1.80;;
13122;SDS011;6627;50.920;12.050;2023-12-20T07:16:39;2.10;;;1.90;;
13122;SDS011;6627;50.920;12.050;2023-12-20T07:19:06;2.13;;;1.93;;
13122;SDS011;6627;50.920;12.050;2023-12-20T07:21:34;2.90;;;2.60;;
13122;SDS011;6627;50.920;12.050;2023-12-20T07:24:02;5.13;;;4.63;;
13122;SDS011;6627;50.920;12.050;2023-12-20T07:26:30;4.97;;;3.10;;
13122;SDS011;6627;50.920;12.050;2023-12-20T07:28:57;3.17;;;2.87;;
13122;SDS011;6627;50.920;12.050;2023-12-20T07:31:25;3.87;;;3.10;;
13122;SDS011;6627;50.920;12.050;2023-12-20T07:33:53;3.00;;;2.47;;
13122;SDS011;6627;50.920;12.050;2023-12-20T07:36:21;2.50;;;2.30;;
13122;SDS011;6627;50.920;12.050;2023-12-20T07:38:49;3.03;;;2.30;;
13122;SDS011;6627;50.920;12.050;2023-12-20T07:41:17;3.87;;;3.40;;
13122;SDS011;6627;50.920;12.050;2023-12-20T07:43:54;4.93;;;2.67;;
13122;SDS011;6627;50.920;12.050;2023-12-20T07:46:41;2.00;;;1.80;;
13122;SDS011;6627;50.920;12.050;2023-12-20T07:49:09;3.97;;;2.30;;
13122;SDS011;6627;50.920;12.050;2023-12-20T07:51:36;3.80;;;2.50;;
13122;SDS011;6627;50.920;12.050;2023-12-20T07:54:16;3.80;;;3.10;;
13122;SDS011;6627;50.920;12.050;2023-12-20T07:57:04;5.33;;;3.53;;
13122;SDS011;6627;50.920;12.050;2023-12-20T07:59:51;4.83;;;3.40;;
13122;SDS011;6627;50.920;12.050;2023-12-20T08:02:37;4.13;;;3.73;;
13122;SDS011;6627;50.920;12.050;2023-12-20T08:05:04;4.73;;;3.30;;
13122;SDS011;6627;50.920;12.050;2023-12-20T08:07:33;4.37;;;3.87;;
13122;SDS011;6627;50.920;12.050;2023-12-20T08:10:01;7.40;;;3.33;;
13122;SDS011;6627;50.920;12.050;2023-12-20T08:12:48;6.93;;;3.90;;
13122;SDS011;6627;50.920;12.050;2023-12-20T08:15:27;5.50;;;3.43;;
13122;SDS011;6627;50.920;12.050;2023-12-20T08:18:02;3.30;;;2.30;;
13122;SDS011;6627;50.920;12.050;2023-12-20T08:20:31;5.93;;;3.17;;
13122;SDS011;6627;50.920;12.050;2023-12-20T08:22:58;4.13;;;2.60;;
13122;SDS011;6627;50.920;12.050;2023-12-20T08:25:26;3.37;;;2.50;;
13122;SDS011;6627;50.920;12.050;2023-12-20T08:28:05;2.30;;;2.10;;
13122;SDS011;6627;50.920;12.050;2023-12-20T08:30:33;3.60;;;2.50;;
13122;SDS011;6627;50.920;12.050;2023-12-20T08:33:00;5.20;;;2.23;;
13122;SDS011;6627;50.920;12.050;2023-12-20T08:35:28;2.87;;;2.13;;
13122;SDS011;6627;50.920;12.050;2023-12-20T08:37:56;2.80;;;2.53;;
13122;SDS011;6627;50.920;12.050;2023-12-20T08:40:23;6.80;;;2.40;;
13122;SDS011;6627;50.920;12.050;2023-12-20T08:42:50;4.57;;;3.20;;
13122;SDS011;6627;50.920;12.050;2023-12-20T08:45:19;4.23;;;3.20;;
13122;SDS011;6627;50.920;12.050;2023-12-20T08:47:46;5.30;;;3.57;;
13122;SDS011;6627;50.920;12.050;2023-12-20T08:50:13;4.70;;;2.37;;
13122;SDS011;6627;50.920;12.050;2023-12-20T08:52:41;5.10;;;3.43;;
13122;SDS011;6627;50.920;12.050;2023-12-20T08:55:11;7.40;;;3.03;;
13122;SDS011;6627;50.920;12.050;2023-12-20T08:57:41;4.77;;;3.30;;
13122;SDS011;6627;50.920;12.050;2023-12-20T09:00:09;7.73;;;3.63;;
13122;SDS011;6627;50.920;12.050;2023-12-20T09:02:46;3.10;;;2.33;;
13122;SDS011;6627;50.920;12.050;2023-12-20T09:05:29;9.83;;;5.57;;
13122;SDS011;6627;50.920;12.050;2023-12-20T09:07:56;5.03;;;3.17;;
13122;SDS011;6627;50.920;12.050;2023-12-20T09:10:25;7.90;;;2.80;;
13122;SDS011;6627;50.920;12.050;2023-12-20T09:12:52;4.37;;;2.37;;
13122;SDS011;6627;50.920;12.050;2023-12-20T09:15:22;8.03;;;3.53;;
13122;SDS011;6627;50.920;12.050;2023-12-20T09:17:58;3.17;;;2.47;;
13122;SDS011;6627;50.920;12.050;2023-12-20T09:20:45;6.23;;;3.07;;
13122;SDS011;6627;50.920;12.050;2023-12-20T09:23:18;3.10;;;2.10;;
13122;SDS011;6627;50.920;12.050;2023-12-20T09:25:46;3.63;;;2.00;;
13122;SDS011;6627;50.920;12.050;2023-12-20T09:28:14;3.63;;;2.07;;
13122;SDS011;6627;50.920;12.050;2023-12-20T09:31:01;5.83;;;2.40;;
13122;SDS011;6627;50.920;12.050;2023-12-20T09:33:49;4.13;;;2.70;;
13122;SDS011;6627;50.920;12.050;2023-12-20T09:36:28;2.13;;;2.00;;
13122;SDS011;6627;50.920;12.050;2023-12-20T09:39:09;6.80;;;3.53;;
13122;SDS011;6627;50.920;12.050;2023-12-20T09:41:37;4.30;;;2.10;;
13122;SDS011;6627;50.920;12.050;2023-12-20T09:44:17;5.13;;;3.43;;
13122;SDS011;6627;50.920;12.050;2023-12-20T09:46:52;4.57;;;2.80;;
13122;SDS011;6627;50.920;12.050;2023-12-20T09:49:42;6.27;;;3.73;;
13122;SDS011;6627;50.920;12.050;2023-12-20T09:52:31;4.83;;;2.10;;
13122;SDS011;6627;50.920;12.050;2023-12-20T09:55:14;7.60;;;2.87;;
13122;SDS011;6627;50.920;12.050;2023-12-20T09:57:55;6.77;;;2.77;;
13122;SDS011;6627;50.920;12.050;2023-12-20T10:00:43;3.67;;;2.57;;
13122;SDS011;6627;50.920;12.050;2023-12-20T10:03:17;4.50;;;2.67;;
13122;SDS011;6627;50.920;12.050;2023-12-20T10:05:53;4.33;;;2.43;;
13122;SDS011;6627;50.920;12.050;2023-12-20T10:08:24;4.47;;;2.37;;
13122;SDS011;6627;50.920;12.050;2023-12-20T10:11:11;2.63;;;2.00;;
13122;SDS011;6627;50.920;12.050;2023-12-20T10:13:44;4.20;;;2.00;;
13122;SDS011;6627;50.920;12.050;2023-12-20T10:16:24;5.73;;;2.20;;
13122;SDS011;6627;50.920;12.050;2023-12-20T10:18:55;4.27;;;2.30;;
13122;SDS011;6627;50.920;12.050;2023-12-20T10:21:24;3.53;;;2.07;;
13122;SDS011;6627;50.920;12.050;2023-12-20T10:24:00;4.40;;;2.57;;
13122;SDS011;6627;50.920;12.050;2023-12-20T10:26:27;7.47;;;2.37;;
13122;SDS011;6627;50.920;12.050;2023-12-20T10:28:55;8.10;;;3.63;;
13122;SDS011;6627;50.920;12.050;2023-12-20T10:31:34;12.23;;;6.27;;
13122;SDS011;6627;50.920;12.050;2023-12-20T10:34:23;7.33;;;4.80;;
13122;SDS011;6627;50.920;12.050;2023-12-20T10:36:52;4.80;;;2.70;;
13122;SDS011;6627;50.920;12.050;2023-12-20T10:39:20;2.77;;;1.63;;
13122;SDS011;6627;50.920;12.050;2023-12-20T10:41:49;4.23;;;2.13;;
13122;SDS011;6627;50.920;12.050;2023-12-20T10:44:18;5.50;;;3.03;;
13122;SDS011;6627;50.920;12.050;2023-12-20T10:46:46;5.70;;;2.60;;
13122;SDS011;6627;50.920;12.050;2023-12-20T10:49:17;7.60;;;2.60;;
13122;SDS011;6627;50.920;12.050;2023-12-20T10:51:50;7.80;;;1.97;;
13122;SDS011;6627;50.920;12.050;2023-12-20T10:54:22;4.47;;;2.47;;
13122;SDS011;6627;50.920;12.050;2023-12-20T10:56:50;6.47;;;2.20;;
13122;SDS011;6627;50.920;12.050;2023-12-20T10:59:33;4.17;;;2.00;;
13122;SDS011;6627;50.920;12.050;2023-12-20T11:02:23;3.73;;;2.17;;
13122;SDS011;6627;50.920;12.050;2023-12-20T11:05:04;4.83;;;2.03;;
13122;SDS011;6627;50.920;12.050;2023-12-20T11:08:10;4.03;;;1.90;;
13122;SDS011;6627;50.920;12.050;2023-12-20T11:10:48;2.73;;;1.57;;
13122;SDS011;6627;50.920;12.050;2023-12-20T11:13:22;3.63;;;1.70;;
13122;SDS011;6627;50.920;12.050;2023-12-20T11:15:59;5.07;;;2.13;;
13122;SDS011;6627;50.920;12.050;2023-12-20T11:18:30;4.93;;;1.87;;
13122;SDS011;6627;50.920;12.050;2023-12-20T11:21:00;1.93;;;1.40;;
13122;SDS011;6627;50.920;12.050;2023-12-20T11:23:49;4.50;;;1.67;;
13122;SDS011;6627;50.920;12.050;2023-12-20T11:26:17;4.23;;;1.77;;
13122;SDS011;6627;50.920;12.050;2023-12-20T11:28:53;4.27;;;1.90;;
13122;SDS011;6627;50.920;12.050;2023-12-20T11:31:21;3.10;;;1.90;;
13122;SDS011;6627;50.920;12.050;2023-12-20T11:33:49;4.50;;;2.30;;
13122;SDS011;6627;50.920;12.050;2023-12-20T11:36:18;4.53;;;1.80;;
13122;SDS011;6627;50.920;12.050;2023-12-20T11:38:50;5.83;;;2.07;;
13122;SDS011;6627;50.920;12.050;2023-12-20T11:41:23;2.93;;;1.80;;
13122;SDS011;6627;50.920;12.050;2023-12-20T11:43:52;7.87;;;2.70;;
13122;SDS011;6627;50.920;12.050;2023-12-20T11:46:21;5.73;;;3.30;;
13122;SDS011;6627;50.920;12.050;2023-12-20T11:49:00;4.67;;;2.30;;
13122;SDS011;6627;50.920;12.050;2023-12-20T11:51:47;7.50;;;2.33;;
13122;SDS011;6627;50.920;12.050;2023-12-20T11:54:35;5.07;;;1.60;;
13122;SDS011;6627;50.920;12.050;2023-12-20T11:57:16;4.43;;;2.03;;
13122;SDS011;6627;50.920;12.050;2023-12-20T11:59:55;4.23;;;1.33;;
13122;SDS011;6627;50.920;12.050;2023-12-20T12:02:33;4.73;;;1.67;;
13122;SDS011;6627;50.920;12.050;2023-12-20T12:05:06;3.17;;;1.50;;
13122;SDS011;6627;50.920;12.050;2023-12-20T12:07:54;4.43;;;1.50;;
13122;SDS011;6627;50.920;12.050;2023-12-20T12:10:22;5.40;;;1.53;;
13122;SDS011;6627;50.920;12.050;2023-12-20T12:12:54;2.20;;;1.33;;
13122;SDS011;6627;50.920;12.050;2023-12-20T12:15:25;2.87;;;1.50;;
13122;SDS011;6627;50.920;12.050;2023-12-20T12:18:01;9.20;;;1.50;;
13122;SDS011;6627;50.920;12.050;2023-12-20T12:20:50;2.23;;;1.10;;
13122;SDS011;6627;50.920;12.050;2023-12-20T12:23:44;2.47;;;1.20;;
13122;SDS011;6627;50.920;12.050;2023-12-20T12:26:32;3.40;;;1.40;;
13122;SDS011;6627;50.920;12.050;2023-12-20T12:29:19;5.07;;;1.77;;
13122;SDS011;6627;50.920;12.050;2023-12-20T12:32:04;5.27;;;1.60;;
13122;SDS011;6627;50.920;12.050;2023-12-20T12:34:34;3.13;;;1.20;;
13122;SDS011;6627;50.920;12.050;2023-12-20T12:37:09;2.37;;;1.50;;
13122;SDS011;6627;50.920;12.050;2023-12-20T12:39:52;3.93;;;1.30;;
13122;SDS011;6627;50.920;12.050;2023-12-20T12:42:21;3.33;;;1.20;;
13122;SDS011;6627;50.920;12.050;2023-12-20T12:45:01;2.90;;;1.50;;
13122;SDS011;6627;50.920;12.050;2023-12-20T12:47:28;1.67;;;1.10;;
13122;SDS011;6627;50.920;12.050;2023-12-20T12:49:56;2.83;;;1.40;;
13122;SDS011;6627;50.920;12.050;2023-12-20T12:52:24;5.40;;;1.90;;
13122;SDS011;6627;50.920;12.050;2023-12-20T12:55:11;4.90;;;2.20;;
13122;SDS011;6627;50.920;12.050;2023-12-20T12:57:40;4.63;;;2.50;;
13122;SDS011;6627;50.920;12.050;2023-12-20T13:00:09;2.93;;;1.50;;
13122;SDS011;6627;50.920;12.050;2023-12-20T13:02:37;3.93;;;1.70;;
13122;SDS011;6627;50.920;12.050;2023-12-20T13:05:15;4.00;;;1.33;;
13122;SDS011;6627;50.920;12.050;2023-12-20T13:08:03;3.43;;;1.43;;
13122;SDS011;6627;50.920;12.050;2023-12-20T13:10:50;4.07;;;1.50;;
13122;SDS011;6627;50.920;12.050;2023-12-20T13:13:19;1.30;;;1.20;;
13122;SDS011;6627;50.920;12.050;2023-12-20T13:15:46;2.77;;;1.23;;
13122;SDS011;6627;50.920;12.050;2023-12-20T13:18:18;3.93;;;1.20;;
13122;SDS011;6627;50.920;12.050;2023-12-20T13:20:45;2.87;;;0.97;;
13122;SDS011;6627;50.920;12.050;2023-12-20T13:23:32;2.70;;;1.37;;
13122;SDS011;6627;50.920;12.050;2023-12-20T13:26:12;4.27;;;1.40;;
13122;SDS011;6627;50.920;12.050;2023-12-20T13:28:41;2.03;;;1.10;;
13122;SDS011;6627;50.920;12.050;2023-12-20T13:31:28;2.57;;;1.50;;
13122;SDS011;6627;50.920;12.050;2023-12-20T13:33:56;2.73;;;1.40;;
13122;SDS011;6627;50.920;12.050;2023-12-20T13:36:38;3.40;;;1.33;;
13122;SDS011;6627;50.920;12.050;2023-12-20T13:39:09;3.17;;;1.60;;
13122;SDS011;6627;50.920;12.050;2023-12-20T13:41:48;4.17;;;1.90;;
13122;SDS011;6627;50.920;12.050;2023-12-20T13:44:17;3.30;;;1.63;;
13122;SDS011;6627;50.920;12.050;2023-12-20T13:46:53;2.63;;;1.27;;
13122;SDS011;6627;50.920;12.050;2023-12-20T13:49:20;3.40;;;1.20;;
13122;SDS011;6627;50.920;12.050;2023-12-20T13:51:54;3.57;;;1.50;;
13122;SDS011;6627;50.920;12.050;2023-12-20T13:54:23;3.20;;;1.60;;
13122;SDS011;6627;50.920;12.050;2023-12-20T13:57:06;2.17;;;1.47;;
13122;SDS011;6627;50.920;12.050;2023-12-20T13:59:40;3.57;;;1.83;;
13122;SDS011;6627;50.920;12.050;2023-12-20T14:02:08;2.23;;;1.57;;
13122;SDS011;6627;50.920;12.050;2023-12-20T14:04:39;2.23;;;1.50;;
13122;SDS011;6627;50.920;12.050;2023-12-20T14:07:06;4.03;;;1.40;;
13122;SDS011;6627;50.920;12.050;2023-12-20T14:09:35;4.87;;;1.90;;
13122;SDS011;6627;50.920;12.050;2023-12-20T14:12:02;4.77;;;1.70;;
13122;SDS011;6627;50.920;12.050;2023-12-20T14:14:40;2.70;;;1.30;;
13122;SDS011;6627;50.920;12.050;2023-12-20T14:17:07;2.43;;;1.40;;
13122;SDS011;6627;50.920;12.050;2023-12-20T14:19:35;3.20;;;1.50;;
13122;SDS011;6627;50.920;12.050;2023-12-20T14:22:03;3.23;;;1.53;;
13122;SDS011;6627;50.920;12.050;2023-12-20T14:24:32;6.60;;;1.90;;
13122;SDS011;6627;50.920;12.050;2023-12-20T14:27:00;3.73;;;1.80;;
13122;SDS011;6627;50.920;12.050;2023-12-20T14:29:40;3.93;;;1.50;;
13122;SDS011;6627;50.920;12.050;2023-12-20T14:32:07;5.70;;;1.70;;
13122;SDS011;6627;50.920;12.050;2023-12-20T14:34:46;3.03;;;1.90;;
13122;SDS011;6627;50.920;12.050;2023-12-20T14:37:21;4.37;;;2.00;;
13122;SDS011;6627;50.920;12.050;2023-12-20T14:39:50;4.27;;;1.87;;
13122;SDS011;6627;50.920;12.050;2023-12-20T14:42:18;4.23;;;1.80;;
13122;SDS011;6627;50.920;12.050;2023-12-20T14:45:03;2.20;;;1.80;;
13122;SDS011;6627;50.920;12.050;2023-12-20T14:47:32;4.50;;;1.93;;
13122;SDS011;6627;50.920;12.050;2023-12-20T14:50:02;4.57;;;2.17;;
13122;SDS011;6627;50.920;12.050;2023-12-20T14:52:46;3.23;;;2.00;;
13122;SDS011;6627;50.920;12.050;2023-12-20T14:55:14;3.60;;;1.60;;
13122;SDS011;6627;50.920;12.050;2023-12-20T14:57:42;2.87;;;1.60;;
13122;SDS011;6627;50.920;12.050;2023-12-20T15:00:12;3.97;;;1.80;;
13122;SDS011;6627;50.920;12.050;2023-12-20T15:03:01;2.90;;;2.00;;
13122;SDS011;6627;50.920;12.050;2023-12-20T15:05:46;2.70;;;1.60;;
13122;SDS011;6627;50.920;12.050;2023-12-20T15:08:14;3.30;;;1.60;;
13122;SDS011;6627;50.920;12.050;2023-12-20T15:10:41;5.43;;;1.67;;
13122;SDS011;6627;50.920;12.050;2023-12-20T15:13:09;5.70;;;1.80;;
13122;SDS011;6627;50.920;12.050;2023-12-20T15:15:39;3.23;;;1.80;;
13122;SDS011;6627;50.920;12.050;2023-12-20T15:18:06;4.53;;;1.97;;
13122;SDS011;6627;50.920;12.050;2023-12-20T15:20:34;5.63;;;1.73;;
13122;SDS011;6627;50.920;12.050;2023-12-20T15:23:04;4.43;;;2.50;;
13122;SDS011;6627;50.920;12.050;2023-12-20T15:25:52;4.00;;;1.50;;
13122;SDS011;6627;50.920;12.050;2023-12-20T15:28:19;3.37;;;2.00;;